sensor_id;sensor_type;location;lat;lon;timestamp;temperature;humidity
40630;DHT22;26329;40.388;-3.710;2023-07-29T00:01:57;27.70;27.90
40630;DHT22;26329;40.388;-3.710;2023-07-29T00:11:58;27.50;28.80
40630;DHT22;26329;40.388;-3.710;2023-07-29T00:21:58;27.40;28.80
40630;DHT22;26329;40.388;-3.710;2023-07-29T00:31:59;27.40;28.80
40630;DHT22;26329;40.388;-3.710;2023-07-29T00:42:00;27.50;29.40
40630;DHT22;26329;40.388;-3.710;2023-07-29T00:52:01;27.20;29.70
40630;DHT22;26329;40.388;-3.710;2023-07-29T01:02:02;27.20;30.30
40630;DHT22;26329;40.388;-3.710;2023-07-29T01:12:36;27.70;29.80
40630;DHT22;26329;40.388;-3.710;2023-07-29T01:22:41;28.10;29.60
40630;DHT22;26329;40.388;-3.710;2023-07-29T01:32:57;27.20;30.60
40630;DHT22;26329;40.388;-3.710;2023-07-29T01:42:59;26.80;31.40
40630;DHT22;26329;40.388;-3.710;2023-07-29T01:53:00;26.70;32.40
40630;DHT22;26329;40.388;-3.710;2023-07-29T02:03:01;26.60;34.10
40630;DHT22;26329;40.388;-3.710;2023-07-29T02:13:03;26.50;35.60
40630;DHT22;26329;40.388;-3.710;2023-07-29T02:23:04;26.40;37.10
40630;DHT22;26329;40.388;-3.710;2023-07-29T02:33:05;26.20;38.10
40630;DHT22;26329;40.388;-3.710;2023-07-29T02:43:05;26.20;38.70
40630;DHT22;26329;40.388;-3.710;2023-07-29T02:53:06;26.10;39.60
40630;DHT22;26329;40.388;-3.710;2023-07-29T03:03:07;26.10;40.70
40630;DHT22;26329;40.388;-3.710;2023-07-29T03:13:08;26.10;40.90
40630;DHT22;26329;40.388;-3.710;2023-07-29T03:23:09;26.00;41.10
40630;DHT22;26329;40.388;-3.710;2023-07-29T03:33:09;25.90;41.80
40630;DHT22;26329;40.388;-3.710;2023-07-29T03:43:10;25.90;41.60
40630;DHT22;26329;40.388;-3.710;2023-07-29T03:53:11;25.80;42.20
40630;DHT22;26329;40.388;-3.710;2023-07-29T04:03:11;25.70;42.70
40630;DHT22;26329;40.388;-3.710;2023-07-29T04:13:12;25.70;42.90
40630;DHT22;26329;40.388;-3.710;2023-07-29T04:23:13;25.70;43.50
40630;DHT22;26329;40.388;-3.710;2023-07-29T04:33:14;25.40;42.00
40630;DHT22;26329;40.388;-3.710;2023-07-29T04:43:14;25.00;41.20
40630;DHT22;26329;40.388;-3.710;2023-07-29T04:53:15;24.50;39.80
40630;DHT22;26329;40.388;-3.710;2023-07-29T05:03:16;24.00;39.10
40630;DHT22;26329;40.388;-3.710;2023-07-29T05:13:17;23.60;38.90
40630;DHT22;26329;40.388;-3.710;2023-07-29T05:23:18;23.50;38.90
40630;DHT22;26329;40.388;-3.710;2023-07-29T05:33:19;23.40;38.50
40630;DHT22;26329;40.388;-3.710;2023-07-29T05:43:19;23.40;38.10
40630;DHT22;26329;40.388;-3.710;2023-07-29T05:53:20;23.20;37.60
40630;DHT22;26329;40.388;-3.710;2023-07-29T06:03:21;23.10;37.80
40630;DHT22;26329;40.388;-3.710;2023-07-29T06:13:21;23.20;38.00
40630;DHT22;26329;40.388;-3.710;2023-07-29T06:23:22;23.40;38.20
40630;DHT22;26329;40.388;-3.710;2023-07-29T06:33:23;23.80;37.60
40630;DHT22;26329;40.388;-3.710;2023-07-29T06:43:24;24.20;37.90
40630;DHT22;26329;40.388;-3.710;2023-07-29T06:53:25;24.50;36.20
40630;DHT22;26329;40.388;-3.710;2023-07-29T07:03:25;25.30;31.80
40630;DHT22;26329;40.388;-3.710;2023-07-29T07:13:26;26.20;30.00
40630;DHT22;26329;40.388;-3.710;2023-07-29T07:23:27;27.10;28.80
40630;DHT22;26329;40.388;-3.710;2023-07-29T07:33:27;27.60;28.20
40630;DHT22;26329;40.388;-3.710;2023-07-29T07:43:28;28.20;27.60
40630;DHT22;26329;40.388;-3.710;2023-07-29T07:53:29;28.60;27.20
40630;DHT22;26329;40.388;-3.710;2023-07-29T08:03:30;28.90;27.20
40630;DHT22;26329;40.388;-3.710;2023-07-29T08:13:31;29.20;26.60
40630;DHT22;26329;40.388;-3.710;2023-07-29T08:23:33;29.50;26.50
40630;DHT22;26329;40.388;-3.710;2023-07-29T08:33:34;29.70;26.60
40630;DHT22;26329;40.388;-3.710;2023-07-29T08:43:36;30.10;26.60
40630;DHT22;26329;40.388;-3.710;2023-07-29T08:53:39;30.00;27.00
40630;DHT22;26329;40.388;-3.710;2023-07-29T09:03:41;30.30;26.50
40630;DHT22;26329;40.388;-3.710;2023-07-29T09:13:41;30.40;27.00
40630;DHT22;26329;40.388;-3.710;2023-07-29T09:23:43;30.60;28.10
40630;DHT22;26329;40.388;-3.710;2023-07-29T09:33:44;30.70;28.20
40630;DHT22;26329;40.388;-3.710;2023-07-29T09:43:45;30.80;28.80
40630;DHT22;26329;40.388;-3.710;2023-07-29T09:53:46;30.90;29.60
40630;DHT22;26329;40.388;-3.710;2023-07-29T10:03:48;31.30;30.40
40630;DHT22;26329;40.388;-3.710;2023-07-29T10:13:50;31.50;30.80
40630;DHT22;26329;40.388;-3.710;2023-07-29T10:23:53;31.80;31.30
40630;DHT22;26329;40.388;-3.710;2023-07-29T10:33:58;31.90;30.70
40630;DHT22;26329;40.388;-3.710;2023-07-29T10:43:58;32.10;30.40
40630;DHT22;26329;40.388;-3.710;2023-07-29T10:54:03;32.30;31.00
40630;DHT22;26329;40.388;-3.710;2023-07-29T11:14:20;32.40;30.10
40630;DHT22;26329;40.388;-3.710;2023-07-29T11:24:22;32.60;30.00
40630;DHT22;26329;40.388;-3.710;2023-07-29T11:34:34;32.50;29.30
40630;DHT22;26329;40.388;-3.710;2023-07-29T11:44:36;32.80;28.30
40630;DHT22;26329;40.388;-3.710;2023-07-29T11:54:38;32.90;28.60
40630;DHT22;26329;40.388;-3.710;2023-07-29T12:04:40;33.10;27.30
40630;DHT22;26329;40.388;-3.710;2023-07-29T12:14:44;33.20;26.50
40630;DHT22;26329;40.388;-3.710;2023-07-29T12:24:46;33.30;27.20
40630;DHT22;26329;40.388;-3.710;2023-07-29T12:34:47;33.50;25.50
40630;DHT22;26329;40.388;-3.710;2023-07-29T12:44:47;33.60;25.70
40630;DHT22;26329;40.388;-3.710;2023-07-29T12:54:48;33.90;25.40
40630;DHT22;26329;40.388;-3.710;2023-07-29T13:04:49;33.70;26.60
40630;DHT22;26329;40.388;-3.710;2023-07-29T13:14:49;33.90;25.40
40630;DHT22;26329;40.388;-3.710;2023-07-29T13:24:50;34.20;25.20
40630;DHT22;26329;40.388;-3.710;2023-07-29T13:34:51;34.20;25.30
40630;DHT22;26329;40.388;-3.710;2023-07-29T13:44:52;34.20;25.40
40630;DHT22;26329;40.388;-3.710;2023-07-29T13:54:53;34.20;25.80
40630;DHT22;26329;40.388;-3.710;2023-07-29T14:04:53;34.40;24.90
40630;DHT22;26329;40.388;-3.710;2023-07-29T14:14:54;34.70;24.50
40630;DHT22;26329;40.388;-3.710;2023-07-29T14:24:55;34.60;23.90
40630;DHT22;26329;40.388;-3.710;2023-07-29T14:34:55;34.60;22.90
40630;DHT22;26329;40.388;-3.710;2023-07-29T14:44:56;34.90;23.10
40630;DHT22;26329;40.388;-3.710;2023-07-29T14:54:57;35.10;22.50
40630;DHT22;26329;40.388;-3.710;2023-07-29T15:04:58;35.10;23.50
40630;DHT22;26329;40.388;-3.710;2023-07-29T15:14:58;35.10;23.30
40630;DHT22;26329;40.388;-3.710;2023-07-29T15:24:59;35.10;22.90
40630;DHT22;26329;40.388;-3.710;2023-07-29T15:35:00;35.20;22.80
40630;DHT22;26329;40.388;-3.710;2023-07-29T15:45:01;35.10;23.60
40630;DHT22;26329;40.388;-3.710;2023-07-29T15:55:02;35.20;23.50
40630;DHT22;26329;40.388;-3.710;2023-07-29T16:05:04;35.20;23.50
40630;DHT22;26329;40.388;-3.710;2023-07-29T16:15:08;35.10;24.00
40630;DHT22;26329;40.388;-3.710;2023-07-29T16:25:09;35.10;23.60
40630;DHT22;26329;40.388;-3.710;2023-07-29T16:35:10;35.20;24.20
40630;DHT22;26329;40.388;-3.710;2023-07-29T16:45:11;35.10;24.20
40630;DHT22;26329;40.388;-3.710;2023-07-29T16:55:12;35.00;24.00
40630;DHT22;26329;40.388;-3.710;2023-07-29T17:05:12;34.90;24.00
40630;DHT22;26329;40.388;-3.710;2023-07-29T17:15:13;34.70;23.30
40630;DHT22;26329;40.388;-3.710;2023-07-29T17:25:14;34.90;23.50
40630;DHT22;26329;40.388;-3.710;2023-07-29T17:35:15;34.70;23.80
40630;DHT22;26329;40.388;-3.710;2023-07-29T17:45:16;34.60;23.80
40630;DHT22;26329;40.388;-3.710;2023-07-29T17:55:16;34.40;23.40
40630;DHT22;26329;40.388;-3.710;2023-07-29T18:05:17;34.30;24.10
40630;DHT22;26329;40.388;-3.710;2023-07-29T18:15:18;34.10;24.40
40630;DHT22;26329;40.388;-3.710;2023-07-29T18:25:19;34.00;24.40
40630;DHT22;26329;40.388;-3.710;2023-07-29T18:35:19;33.90;24.40
40630;DHT22;26329;40.388;-3.710;2023-07-29T18:45:20;33.80;24.90
40630;DHT22;26329;40.388;-3.710;2023-07-29T18:55:21;33.60;25.20
40630;DHT22;26329;40.388;-3.710;2023-07-29T19:05:22;33.50;25.20
40630;DHT22;26329;40.388;-3.710;2023-07-29T19:15:23;33.30;26.00
40630;DHT22;26329;40.388;-3.710;2023-07-29T19:25:24;33.10;26.60
40630;DHT22;26329;40.388;-3.710;2023-07-29T19:35:25;32.90;26.90
40630;DHT22;26329;40.388;-3.710;2023-07-29T19:45:27;32.60;27.30
40630;DHT22;26329;40.388;-3.710;2023-07-29T19:55:27;32.60;27.60
40630;DHT22;26329;40.388;-3.710;2023-07-29T20:05:31;32.40;28.30
40630;DHT22;26329;40.388;-3.710;2023-07-29T20:15:31;32.20;29.10
40630;DHT22;26329;40.388;-3.710;2023-07-29T20:25:34;32.00;30.00
40630;DHT22;26329;40.388;-3.710;2023-07-29T20:35:35;31.90;30.50
40630;DHT22;26329;40.388;-3.710;2023-07-29T20:45:36;31.70;30.90
40630;DHT22;26329;40.388;-3.710;2023-07-29T20:55:37;31.60;31.40
40630;DHT22;26329;40.388;-3.710;2023-07-29T21:05:37;31.40;31.80
40630;DHT22;26329;40.388;-3.710;2023-07-29T21:15:38;31.20;32.00
40630;DHT22;26329;40.388;-3.710;2023-07-29T21:25:39;31.10;32.20
40630;DHT22;26329;40.388;-3.710;2023-07-29T21:35:40;30.90;32.70
40630;DHT22;26329;40.388;-3.710;2023-07-29T21:45:41;30.80;32.90
40630;DHT22;26329;40.388;-3.710;2023-07-29T21:55:42;30.60;33.30
40630;DHT22;26329;40.388;-3.710;2023-07-29T22:05:45;30.30;33.70
40630;DHT22;26329;40.388;-3.710;2023-07-29T22:15:46;30.20;33.90
40630;DHT22;26329;40.388;-3.710;2023-07-29T22:36:01;29.90;34.40
40630;DHT22;26329;40.388;-3.710;2023-07-29T22:46:02;29.80;34.20
40630;DHT22;26329;40.388;-3.710;2023-07-29T22:56:03;29.70;34.50
40630;DHT22;26329;40.388;-3.710;2023-07-29T23:06:03;29.60;34.60
40630;DHT22;26329;40.388;-3.710;2023-07-29T23:16:04;29.50;34.40
40630;DHT22;26329;40.388;-3.710;2023-07-29T23:26:05;29.30;34.60
40630;DHT22;26329;40.388;-3.710;2023-07-29T23:36:06;29.20;34.70
40630;DHT22;26329;40.388;-3.710;2023-07-29T23:46:06;29.20;34.80
40630;DHT22;26329;40.388;-3.710;2023-07-29T23:56:07;29.10;34.90
